createdAt,value
2022-11-28T00:01:41.236Z,10.80
2022-11-28T00:04:10.396Z,10.80
2022-11-28T00:06:39.970Z,10.80
2022-11-28T00:09:09.198Z,10.70
2022-11-28T00:11:37.462Z,10.80
2022-11-28T00:14:05.882Z,10.80
2022-11-28T00:16:34.368Z,10.80
2022-11-28T00:19:05.534Z,10.80
2022-11-28T00:21:34.280Z,10.80
2022-11-28T00:24:03.187Z,10.80
2022-11-28T00:26:34.379Z,10.80
2022-11-28T00:29:03.543Z,10.80
2022-11-28T00:31:34.044Z,10.80
2022-11-28T00:34:04.117Z,10.80
2022-11-28T00:36:32.556Z,10.90
2022-11-28T00:39:00.873Z,10.90
2022-11-28T00:41:31.432Z,10.90
2022-11-28T00:43:59.767Z,10.90
2022-11-28T00:46:28.716Z,10.90
2022-11-28T00:48:58.267Z,10.90
2022-11-28T00:51:29.998Z,10.90
2022-11-28T00:54:00.565Z,10.90
2022-11-28T00:56:30.122Z,10.90
2022-11-28T00:58:59.173Z,10.90
2022-11-28T01:01:29.649Z,10.90
2022-11-28T01:04:00.528Z,10.90
2022-11-28T01:06:32.342Z,10.90
2022-11-28T01:09:01.984Z,10.90
2022-11-28T01:11:31.421Z,10.90
2022-11-28T01:14:01.558Z,10.90
2022-11-28T01:16:30.412Z,10.90
2022-11-28T01:18:58.854Z,11.00
2022-11-28T01:21:27.536Z,11.00
2022-11-28T01:23:57.225Z,11.00
2022-11-28T01:26:27.795Z,11.00
2022-11-28T01:28:56.809Z,11.00
2022-11-28T01:31:27.260Z,10.90
2022-11-28T01:33:55.945Z,10.90
2022-11-28T01:36:24.640Z,10.90
2022-11-28T01:38:53.594Z,11.00
2022-11-28T01:41:26.054Z,11.00
2022-11-28T01:44:17.284Z,11.00
2022-11-28T01:46:45.873Z,11.00
2022-11-28T01:49:19.827Z,10.90
2022-11-28T01:51:50.743Z,10.90
2022-11-28T01:54:21.821Z,10.90
2022-11-28T01:56:56.490Z,10.90
2022-11-28T01:59:27.646Z,10.80
2022-11-28T02:01:55.945Z,10.80
2022-11-28T02:04:27.213Z,10.80
2022-11-28T02:06:55.691Z,10.80
2022-11-28T02:09:23.958Z,10.80
2022-11-28T02:12:16.212Z,10.70
2022-11-28T02:15:04.205Z,10.70
2022-11-28T02:17:45.371Z,10.70
2022-11-28T02:20:44.609Z,10.70
2022-11-28T02:23:17.830Z,10.60
2022-11-28T02:26:36.668Z,10.60
2022-11-28T02:29:43.715Z,10.60
2022-11-28T02:32:19.079Z,10.60
2022-11-28T02:34:56.325Z,10.60
2022-11-28T02:37:43.190Z,10.60
2022-11-28T02:40:21.589Z,10.60
2022-11-28T02:43:00.284Z,10.60
2022-11-28T02:45:33.718Z,10.60
2022-11-28T02:48:08.492Z,10.50
2022-11-28T02:50:42.301Z,10.50
2022-11-28T02:53:14.497Z,10.50
2022-11-28T02:55:44.648Z,10.50
2022-11-28T02:58:13.702Z,10.50
2022-11-28T03:00:44.066Z,10.50
2022-11-28T03:03:43.209Z,10.50
2022-11-28T03:06:19.872Z,10.50
2022-11-28T03:09:11.041Z,10.40
2022-11-28T03:11:50.918Z,10.40
2022-11-28T03:14:29.813Z,10.40
2022-11-28T03:17:07.373Z,10.40
2022-11-28T03:19:41.411Z,10.50
2022-11-28T03:22:18.295Z,10.50
2022-11-28T03:24:51.931Z,10.40
2022-11-28T03:27:25.892Z,10.50
2022-11-28T03:29:56.690Z,10.50
2022-11-28T03:32:29.664Z,10.50
2022-11-28T03:35:04.542Z,10.50
2022-11-28T03:37:36.756Z,10.50
2022-11-28T03:40:09.395Z,10.50
2022-11-28T03:42:42.609Z,10.50
2022-11-28T03:45:16.364Z,10.50
2022-11-28T03:47:48.192Z,10.50
2022-11-28T03:50:21.462Z,10.50
2022-11-28T03:52:54.290Z,10.60
2022-11-28T03:55:28.667Z,10.60
2022-11-28T03:58:06.029Z,10.60
2022-11-28T04:00:37.988Z,10.50
2022-11-28T04:03:12.567Z,10.50
2022-11-28T04:05:48.635Z,10.50
2022-11-28T04:08:21.116Z,10.50
2022-11-28T04:10:56.969Z,10.50
2022-11-28T04:13:30.644Z,10.50
2022-11-28T04:16:06.382Z,10.50
2022-11-28T04:18:44.578Z,10.50
2022-11-28T04:21:21.244Z,10.50
2022-11-28T04:23:51.055Z,10.50
2022-11-28T04:26:23.477Z,10.40
2022-11-28T04:28:53.524Z,10.40
2022-11-28T04:31:24.423Z,10.40
2022-11-28T04:33:57.485Z,10.40
2022-11-28T04:36:29.106Z,10.40
2022-11-28T04:38:59.964Z,10.40
2022-11-28T04:41:32.143Z,10.30
2022-11-28T04:44:07.300Z,10.30
2022-11-28T04:46:41.533Z,10.30
2022-11-28T04:49:10.013Z,10.30
2022-11-28T04:51:46.356Z,10.20
2022-11-28T04:54:20.945Z,10.20
2022-11-28T04:56:54.048Z,10.20
2022-11-28T04:59:26.316Z,10.10
2022-11-28T05:01:58.419Z,10.10
2022-11-28T05:04:26.792Z,10.10
2022-11-28T05:07:04.487Z,10.10
2022-11-28T05:09:32.876Z,10.10
2022-11-28T05:12:01.114Z,10.10
2022-11-28T05:14:29.419Z,10.20
2022-11-28T05:16:57.686Z,10.10
2022-11-28T05:19:25.981Z,10.10
2022-11-28T05:21:54.327Z,10.20
2022-11-28T05:24:27.920Z,10.20
2022-11-28T05:26:59.072Z,10.20
2022-11-28T05:29:27.356Z,10.20
2022-11-28T05:31:55.646Z,10.20
2022-11-28T05:34:23.964Z,10.20
2022-11-28T05:36:52.289Z,10.20
2022-11-28T05:39:20.549Z,10.20
2022-11-28T05:41:50.165Z,10.20
2022-11-28T05:44:21.561Z,10.20
2022-11-28T05:46:52.962Z,10.20
2022-11-28T05:49:21.743Z,10.20
2022-11-28T05:51:50.024Z,10.20
2022-11-28T05:54:18.299Z,10.20
2022-11-28T05:56:46.561Z,10.20
2022-11-28T05:59:16.264Z,10.20
2022-11-28T06:01:44.831Z,10.10
2022-11-28T06:04:13.215Z,10.10
2022-11-28T06:06:41.540Z,10.10
2022-11-28T06:09:09.881Z,10.10
2022-11-28T06:11:38.446Z,10.10
2022-11-28T06:14:06.662Z,10.10
2022-11-28T06:16:36.336Z,10.10
2022-11-28T06:19:07.168Z,10.10
2022-11-28T06:21:35.749Z,10.00
2022-11-28T06:24:04.013Z,10.00
2022-11-28T06:26:32.287Z,10.00
2022-11-28T06:29:00.525Z,9.90
2022-11-28T06:31:30.835Z,9.90
2022-11-28T06:34:00.910Z,10.00
2022-11-28T06:36:30.799Z,10.00
2022-11-28T06:38:59.018Z,9.90
2022-11-28T06:41:27.320Z,10.00
2022-11-28T06:43:56.351Z,9.90
2022-11-28T06:46:25.162Z,10.00
2022-11-28T06:48:54.816Z,10.00
2022-11-28T06:51:24.544Z,10.00
2022-11-28T06:53:52.783Z,10.00
2022-11-28T06:56:21.826Z,10.00
2022-11-28T06:58:56.283Z,10.00
2022-11-28T07:01:26.225Z,10.00
2022-11-28T07:03:55.502Z,10.00
2022-11-28T07:06:26.974Z,10.00
2022-11-28T07:08:56.816Z,10.00
2022-11-28T07:11:27.364Z,10.00
2022-11-28T07:13:56.753Z,10.00
2022-11-28T07:16:26.926Z,9.90
2022-11-28T07:18:56.550Z,9.90
2022-11-28T07:21:27.018Z,9.90
2022-11-28T07:23:55.426Z,9.90
2022-11-28T07:26:24.259Z,10.00
2022-11-28T07:28:53.014Z,10.00
2022-11-28T07:31:22.928Z,9.90
2022-11-28T07:33:52.228Z,10.00
2022-11-28T07:36:22.853Z,10.00
2022-11-28T07:38:54.257Z,10.00
2022-11-28T07:41:26.518Z,10.00
2022-11-28T07:43:57.197Z,10.00
2022-11-28T07:46:26.924Z,10.10
2022-11-28T07:48:55.296Z,10.00
2022-11-28T07:51:25.142Z,10.10
2022-11-28T07:53:55.442Z,10.10
2022-11-28T07:56:25.066Z,10.10
2022-11-28T07:58:53.410Z,10.10
2022-11-28T08:01:23.059Z,10.10
2022-11-28T08:03:51.893Z,10.20
2022-11-28T08:06:22.310Z,10.20
2022-11-28T08:08:51.299Z,10.20
2022-11-28T08:11:21.955Z,10.20
2022-11-28T08:13:51.861Z,10.30
2022-11-28T08:16:24.099Z,10.20
2022-11-28T08:18:53.291Z,10.30
2022-11-28T08:21:23.436Z,10.30
2022-11-28T08:23:52.652Z,10.30
2022-11-28T08:26:28.799Z,10.30
2022-11-28T08:28:59.306Z,10.30
2022-11-28T08:31:29.740Z,10.30
2022-11-28T08:34:00.694Z,10.30
2022-11-28T08:36:29.785Z,10.40
2022-11-28T08:39:17.105Z,10.40
2022-11-28T08:41:50.163Z,10.40
2022-11-28T08:44:18.416Z,10.40
2022-11-28T08:46:46.680Z,10.50
2022-11-28T08:49:14.949Z,10.50
2022-11-28T08:51:43.222Z,10.60
2022-11-28T08:54:11.671Z,10.60
2022-11-28T08:56:39.928Z,10.60
2022-11-28T08:59:10.486Z,10.70
2022-11-28T09:01:39.673Z,10.60
2022-11-28T09:04:07.991Z,10.70
2022-11-28T09:06:36.805Z,10.70
2022-11-28T09:09:05.657Z,10.70
2022-11-28T09:11:35.220Z,10.70
2022-11-28T09:14:03.419Z,10.80
2022-11-28T09:16:33.126Z,10.80
2022-11-28T09:19:01.415Z,10.80
2022-11-28T09:21:29.659Z,10.80
2022-11-28T09:23:58.145Z,10.80
2022-11-28T09:26:27.091Z,10.90
2022-11-28T09:28:56.813Z,10.90
2022-11-28T09:31:25.128Z,10.90
2022-11-28T09:33:55.102Z,10.90
2022-11-28T09:36:24.825Z,10.90
2022-11-28T09:38:53.157Z,10.90
2022-11-28T09:41:51.046Z,11.00
2022-11-28T09:44:24.058Z,10.90
2022-11-28T09:46:54.938Z,11.00
2022-11-28T09:49:36.805Z,11.00
2022-11-28T09:52:23.128Z,11.10
2022-11-28T09:54:59.658Z,11.10
2022-11-28T09:57:35.564Z,11.00
2022-11-28T10:00:05.472Z,11.00
2022-11-28T10:02:41.152Z,11.00
2022-11-28T10:05:23.053Z,11.10
2022-11-28T10:08:04.257Z,11.10
2022-11-28T10:10:45.969Z,11.10
2022-11-28T10:13:21.772Z,11.20
2022-11-28T10:15:58.051Z,11.20
2022-11-28T10:18:36.185Z,11.30
2022-11-28T10:21:16.506Z,11.30
2022-11-28T10:23:48.227Z,11.40
2022-11-28T10:26:22.666Z,11.50
2022-11-28T10:28:54.277Z,11.50
2022-11-28T10:31:30.970Z,11.60
2022-11-28T10:34:06.427Z,11.70
2022-11-28T10:36:53.492Z,11.70
2022-11-28T10:39:21.728Z,11.70
2022-11-28T10:42:12.250Z,11.80
2022-11-28T10:45:01.573Z,11.80
2022-11-28T10:48:07.541Z,11.80
2022-11-28T10:50:54.356Z,11.80
2022-11-28T10:53:37.623Z,11.80
2022-11-28T10:56:14.721Z,11.80
2022-11-28T10:58:52.043Z,11.90
2022-11-28T11:01:20.421Z,11.90
2022-11-28T11:03:49.625Z,12.00
2022-11-28T11:06:17.900Z,11.90
2022-11-28T11:08:48.856Z,11.90
2022-11-28T11:11:27.632Z,11.80
2022-11-28T11:14:00.219Z,11.80
2022-11-28T11:16:47.736Z,11.80
2022-11-28T11:19:25.915Z,11.80
2022-11-28T11:22:06.784Z,11.70
2022-11-28T11:24:36.450Z,11.70
2022-11-28T11:27:08.287Z,11.60
2022-11-28T11:29:39.186Z,11.70
2022-11-28T11:32:21.693Z,11.60
2022-11-28T11:34:50.363Z,11.60
2022-11-28T11:37:22.224Z,11.60
2022-11-28T11:39:53.423Z,11.50
2022-11-28T11:42:23.621Z,11.50
2022-11-28T11:44:52.031Z,11.50
2022-11-28T11:47:20.629Z,11.50
2022-11-28T11:49:50.021Z,11.50
2022-11-28T11:52:24.237Z,11.50
2022-11-28T11:55:02.291Z,11.40
2022-11-28T11:57:36.948Z,11.30
2022-11-28T12:00:08.113Z,11.20
2022-11-28T12:02:41.074Z,11.20
2022-11-28T12:05:14.510Z,11.20
2022-11-28T12:07:51.981Z,11.20
2022-11-28T12:10:28.122Z,11.10
2022-11-28T12:12:56.393Z,11.20
2022-11-28T12:15:35.039Z,11.20
2022-11-28T12:18:15.919Z,11.20
2022-11-28T12:21:08.089Z,11.30
2022-11-28T12:23:55.148Z,11.30
2022-11-28T12:26:32.823Z,11.30
2022-11-28T12:29:15.168Z,11.30
2022-11-28T12:31:52.324Z,11.30
2022-11-28T12:34:31.848Z,11.20
2022-11-28T12:37:09.781Z,11.20
2022-11-28T12:39:49.164Z,11.20
2022-11-28T12:42:30.526Z,11.20
2022-11-28T12:45:31.364Z,11.20
2022-11-28T12:48:10.739Z,11.30
2022-11-28T12:50:41.018Z,11.40
2022-11-28T12:53:40.458Z,11.50
2022-11-28T12:56:21.644Z,11.60
2022-11-28T12:58:59.752Z,11.60
2022-11-28T13:01:53.930Z,11.70
2022-11-28T13:04:40.126Z,11.70
2022-11-28T13:07:19.373Z,11.80
2022-11-28T13:09:59.535Z,11.70
2022-11-28T13:12:41.403Z,11.80
2022-11-28T13:15:17.478Z,11.80
2022-11-28T13:17:53.430Z,12.00
2022-11-28T13:20:27.665Z,12.70
2022-11-28T13:23:07.104Z,12.70
2022-11-28T13:25:45.691Z,12.70
2022-11-28T13:28:20.543Z,12.60
2022-11-28T13:30:54.247Z,12.80
2022-11-28T13:33:38.886Z,12.70
2022-11-28T13:36:11.049Z,12.60
2022-11-28T13:39:08.216Z,12.90
2022-11-28T13:42:14.273Z,13.50
2022-11-28T13:44:40.960Z,13.70
2022-11-28T13:47:31.941Z,13.40
2022-11-28T13:50:39.604Z,13.00
2022-11-28T13:53:24.969Z,12.80
2022-11-28T13:55:56.576Z,12.50
2022-11-28T13:58:28.417Z,12.30
2022-11-28T14:01:18.918Z,12.20
2022-11-28T14:03:51.259Z,12.00
2022-11-28T14:06:22.745Z,11.90
2022-11-28T14:09:04.084Z,11.80
2022-11-28T14:12:03.170Z,11.70
2022-11-28T14:15:00.643Z,11.60
2022-11-28T14:17:42.376Z,11.60
2022-11-28T14:20:25.916Z,11.50
2022-11-28T14:23:08.319Z,11.50
2022-11-28T14:25:43.156Z,11.50
2022-11-28T14:28:22.532Z,11.40
2022-11-28T14:30:51.857Z,11.30
2022-11-28T14:33:23.995Z,11.30
2022-11-28T14:36:34.782Z,11.30
2022-11-28T14:39:35.552Z,11.20
2022-11-28T14:45:43.831Z,11.00
2022-11-28T14:48:31.039Z,10.80
2022-11-28T14:51:02.076Z,10.80
2022-11-28T14:53:45.783Z,10.80
2022-11-28T14:56:28.054Z,10.70
2022-11-28T14:59:03.513Z,10.70
2022-11-28T15:01:49.342Z,10.60
2022-11-28T15:04:41.194Z,10.60
2022-11-28T15:07:22.227Z,10.60
2022-11-28T15:09:59.155Z,10.60
2022-11-28T15:12:39.631Z,10.50
2022-11-28T15:15:13.217Z,10.50
2022-11-28T15:17:46.391Z,10.50
2022-11-28T15:20:21.814Z,10.40
2022-11-28T15:22:50.051Z,10.40
2022-11-28T15:25:23.653Z,10.40
2022-11-28T15:27:54.224Z,10.40
2022-11-28T15:30:26.479Z,10.40
2022-11-28T15:32:58.334Z,10.30
2022-11-28T15:35:27.397Z,10.30
2022-11-28T15:37:58.127Z,10.30
2022-11-28T15:40:30.179Z,10.30
2022-11-28T15:43:00.699Z,10.30
2022-11-28T15:45:31.172Z,10.20
2022-11-28T15:47:59.653Z,10.20
2022-11-28T15:50:29.931Z,10.20
2022-11-28T15:52:59.757Z,10.20
2022-11-28T15:55:30.747Z,10.10
2022-11-28T15:58:18.986Z,10.10
2022-11-28T16:00:50.868Z,10.10
2022-11-28T16:03:24.544Z,10.10
2022-11-28T16:05:55.904Z,10.10
2022-11-28T16:08:28.661Z,10.10
2022-11-28T16:10:57.825Z,10.00
2022-11-28T16:13:28.732Z,10.00
2022-11-28T16:15:58.483Z,10.00
2022-11-28T16:18:28.496Z,10.00
2022-11-28T16:20:58.169Z,9.90
2022-11-28T16:23:30.764Z,9.90
2022-11-28T16:26:04.188Z,9.90
2022-11-28T16:28:37.453Z,9.90
2022-11-28T16:31:12.710Z,9.90
2022-11-28T16:33:42.733Z,9.90
2022-11-28T16:36:18.056Z,9.80
2022-11-28T16:38:48.193Z,9.90
2022-11-28T16:41:18.748Z,9.90
2022-11-28T16:43:51.375Z,9.80
2022-11-28T16:46:22.857Z,9.80
2022-11-28T16:48:55.574Z,9.80
2022-11-28T16:51:33.394Z,9.80
2022-11-28T16:54:22.170Z,9.80
2022-11-28T16:56:50.545Z,9.90
2022-11-28T16:59:21.482Z,9.80
2022-11-28T17:01:53.598Z,9.80
2022-11-28T17:04:24.045Z,9.80
2022-11-28T17:06:52.994Z,9.70
2022-11-28T17:09:21.662Z,9.80
2022-11-28T17:11:55.685Z,9.70
2022-11-28T17:14:25.515Z,9.70
2022-11-28T17:16:53.735Z,9.70
2022-11-28T17:19:21.983Z,9.70
2022-11-28T17:21:53.013Z,9.70
2022-11-28T17:24:23.361Z,9.60
2022-11-28T17:26:53.601Z,9.60
2022-11-28T17:29:22.823Z,9.60
2022-11-28T17:31:55.287Z,9.60
2022-11-28T17:34:25.243Z,9.60
2022-11-28T17:36:53.768Z,9.60
2022-11-28T17:39:22.562Z,9.60
2022-11-28T17:41:51.451Z,9.50
2022-11-28T17:44:22.382Z,9.50
2022-11-28T17:46:53.190Z,9.50
2022-11-28T17:49:22.414Z,9.50
2022-11-28T17:51:51.394Z,9.50
2022-11-28T17:54:21.971Z,9.50
2022-11-28T17:56:51.458Z,9.50
2022-11-28T17:59:21.084Z,9.50
2022-11-28T18:01:51.586Z,9.50
2022-11-28T18:04:20.115Z,9.50
2022-11-28T18:06:48.968Z,9.50
2022-11-28T18:09:17.277Z,9.50
2022-11-28T18:11:46.412Z,9.50
2022-11-28T18:14:19.255Z,9.50
2022-11-28T18:16:48.104Z,9.50
2022-11-28T18:19:17.775Z,9.50
2022-11-28T18:21:46.012Z,9.50
2022-11-28T18:24:14.484Z,9.50
2022-11-28T18:26:42.739Z,9.50
2022-11-28T18:29:11.302Z,9.50
2022-11-28T18:31:39.661Z,9.50
2022-11-28T18:34:09.588Z,9.50
2022-11-28T18:36:39.975Z,9.40
2022-11-28T18:39:09.941Z,9.50
2022-11-28T18:41:39.881Z,9.40
2022-11-28T18:44:08.847Z,9.40
2022-11-28T18:46:37.605Z,9.40
2022-11-28T18:49:05.894Z,9.40
2022-11-28T18:51:35.547Z,9.30
2022-11-28T18:54:06.835Z,9.30
2022-11-28T18:56:35.409Z,9.30
2022-11-28T18:59:04.282Z,9.40
2022-11-28T19:01:34.164Z,9.40
2022-11-28T19:04:04.238Z,9.30
2022-11-28T19:06:33.176Z,9.30
2022-11-28T19:09:02.824Z,9.30
2022-11-28T19:11:33.210Z,9.30
2022-11-28T19:14:01.575Z,9.30
2022-11-28T19:16:32.424Z,9.30
2022-11-28T19:19:02.184Z,9.30
2022-11-28T19:21:33.055Z,9.30
2022-11-28T19:24:02.381Z,9.40
2022-11-28T19:26:34.031Z,9.30
2022-11-28T19:29:02.915Z,9.30
2022-11-28T19:31:33.027Z,9.30
2022-11-28T19:34:03.124Z,9.30
2022-11-28T19:36:32.836Z,9.40
2022-11-28T19:39:01.653Z,9.40
2022-11-28T19:41:32.427Z,9.30
2022-11-28T19:44:01.144Z,9.30
2022-11-28T19:46:35.187Z,9.20
2022-11-28T19:49:04.414Z,9.20
2022-11-28T19:51:32.872Z,9.20
2022-11-28T19:54:03.508Z,9.20
2022-11-28T19:56:33.603Z,9.20
2022-11-28T19:59:02.138Z,9.20
2022-11-28T20:01:30.474Z,9.10
2022-11-28T20:03:59.796Z,9.10
2022-11-28T20:06:30.081Z,9.10
2022-11-28T20:09:01.251Z,9.10
2022-11-28T20:11:31.172Z,9.10
2022-11-28T20:14:02.672Z,9.10
2022-11-28T20:16:32.670Z,9.00
2022-11-28T20:19:01.645Z,9.00
2022-11-28T20:21:30.853Z,9.00
2022-11-28T20:24:04.357Z,9.00
2022-11-28T20:26:35.116Z,9.00
2022-11-28T20:29:04.866Z,8.90
2022-11-28T20:31:35.772Z,8.90
2022-11-28T20:34:04.250Z,8.90
2022-11-28T20:36:33.392Z,8.80
2022-11-28T20:39:01.650Z,8.80
2022-11-28T20:41:31.580Z,8.80
2022-11-28T20:44:00.875Z,8.80
2022-11-28T20:46:33.684Z,8.70
2022-11-28T20:49:03.989Z,8.70
2022-11-28T20:51:34.162Z,8.70
2022-11-28T20:54:04.754Z,8.70
2022-11-28T20:56:51.650Z,8.70
2022-11-28T20:59:24.068Z,8.60
2022-11-28T21:01:53.722Z,8.70
2022-11-28T21:04:22.022Z,8.50
2022-11-28T21:06:50.346Z,8.60
2022-11-28T21:09:20.450Z,8.60
2022-11-28T21:11:58.580Z,8.60
2022-11-28T21:14:28.815Z,8.60
2022-11-28T21:16:59.571Z,8.60
2022-11-28T21:19:27.839Z,8.50
2022-11-28T21:21:56.098Z,8.50
2022-11-28T21:24:24.699Z,8.40
2022-11-28T21:26:54.703Z,8.40
2022-11-28T21:29:24.822Z,8.40
2022-11-28T21:31:53.662Z,8.30
2022-11-28T21:34:23.512Z,8.40
2022-11-28T21:36:51.873Z,8.40
2022-11-28T21:39:22.047Z,8.30
2022-11-28T21:41:51.982Z,8.40
2022-11-28T21:44:20.384Z,8.30
2022-11-28T21:46:48.635Z,8.30
2022-11-28T21:49:17.190Z,8.40
2022-11-28T21:51:47.051Z,8.40
2022-11-28T21:54:15.319Z,8.30
2022-11-28T21:56:43.577Z,8.30
2022-11-28T21:59:11.795Z,8.30
2022-11-28T22:01:40.153Z,8.30
2022-11-28T22:04:08.807Z,8.30
2022-11-28T22:06:37.123Z,8.20
2022-11-28T22:09:09.356Z,8.20
2022-11-28T22:11:38.588Z,8.20
2022-11-28T22:14:06.980Z,8.20
2022-11-28T22:16:35.194Z,8.20
2022-11-28T22:19:04.101Z,8.20
2022-11-28T22:24:22.638Z,8.20
2022-11-28T22:26:50.907Z,8.20
2022-11-28T22:29:19.206Z,8.10
2022-11-28T22:31:47.504Z,8.10
2022-11-28T22:34:15.776Z,8.10
2022-11-28T22:36:43.948Z,8.10
2022-11-28T22:39:12.641Z,8.10
2022-11-28T22:41:42.416Z,8.10
2022-11-28T22:44:12.179Z,8.10
2022-11-28T22:46:40.398Z,8.10
2022-11-28T22:49:08.615Z,8.10
2022-11-28T22:51:37.224Z,8.10
2022-11-28T22:54:05.922Z,8.10
2022-11-28T22:56:35.754Z,8.10
2022-11-28T22:59:05.904Z,8.10
2022-11-28T23:01:34.730Z,8.10
2022-11-28T23:04:03.113Z,8.10
2022-11-28T23:06:33.565Z,8.00
2022-11-28T23:09:04.009Z,8.00
2022-11-28T23:11:34.621Z,8.00
2022-11-28T23:14:04.728Z,8.00
2022-11-28T23:16:35.085Z,8.00
2022-11-28T23:19:06.137Z,8.00
2022-11-28T23:21:36.237Z,8.00
2022-11-28T23:24:04.638Z,8.00
2022-11-28T23:26:33.445Z,8.00
2022-11-28T23:29:02.931Z,8.10
2022-11-28T23:31:34.612Z,8.00
2022-11-28T23:34:03.603Z,8.00
2022-11-28T23:36:38.430Z,8.00
2022-11-28T23:39:12.554Z,7.90
2022-11-28T23:41:41.041Z,7.90
2022-11-28T23:44:10.596Z,7.90
2022-11-28T23:46:40.770Z,7.90
2022-11-28T23:49:09.880Z,7.80
2022-11-28T23:51:38.792Z,7.80
2022-11-28T23:54:07.499Z,7.80
2022-11-28T23:56:37.222Z,7.80
2022-11-28T23:59:07.181Z,7.80
